Ride Results

Coolamon Ride (20-07-2013)
Ride distance: 80.0 km

Outcomes - Coolamon Ride (20-07-2013)
Division No. of Entries Retired / DNE Completed Withdrawn Ineligible V/O Percentage Completed
HW 11 - 9 1 - 1 81.82%
MW 29 - 23 1 - 5 79.31%
LW 26 - 24 1 - 1 92.31%
JN 5 - 5 - - - 100.00%
Totals 71 - 61 3 - 7 85.92%
Results - Coolamon Ride (20-07-2013)
No. Rider Horse Place Time Leg Speeds Total
Km/Hr
H/R bpm
Heavyweight
4 Patrick Leary Raz Amber 1 3:54:00 23.5, 18.1 20.51 49, 52, 54 (Avg:53)
62 Marty Moran Jelignite Jack 2 3:58:00 22.2, 18.4 20.17 36, 41, 45 (Avg:43)
53 Heidi Wade Yinbilliko Jackson 3 (BC) 3:59:15 19.9, 20.1 20.06 32, 39, 44 (Avg:41)
49 Laurie Stevens Salz Bossy Boots 4 5:11:00 16.4, 14.5 15.43 43, 40, 44 (Avg:42)
41 Frank Mollema Littlebanks Crystal Wings 5 6:07:00 16.4, 10.8 13.08 34, 44, 53 (Avg:48)
24 Jack Johnson Sharahd Chemoss 6 6:45:00 12.3, 11.3 11.85 35, 34, 45 (Avg:39)
44 Brodie Freeman Cedar Ridge Blue Bayou 7 7:35:00 11.1, 9.9 10.55 44, 39, 44 (Avg:41)
17 Garry Matthews Wybalena Lodge Prince Harry 7 7:35:00 10.4, 10.6 10.55 30, 46, 58 (Avg:52)
27 Stuart Lymbery Aloha Typic 9 7:43:00 10.6, 10.1 10.37 35, 39, 35 (Avg:37)
20 Scott Peters La Danza D'Askari Heart Rate L2 0:00:00 12.3, 11.3 - 43, 50, 64 (Avg:57)
37 Sarah Kelly Littlebanks Storm Withdrawn L1 0:00:00 - - 29, 46 (Avg:46)
Middleweight
54 Talea Hasko-Stewart Blake's Heaven Bombora 1 (BC) 3:27:00 23.7, 22.6 23.19 34, 40, 43 (Avg:41)
48 Sorsha Stuart-Rokvic Blake's Heaven Summer Reign 1 3:27:00 23.7, 22.6 23.19 32, 36, 44 (Avg:40)
40 Ian Curtis Blake's Heaven Summer Wind 3 4:50:00 17.7, 15.4 16.55 46, 47, 56 (Avg:51)
38 Andrew Mackinder Sundown Park Cariad 4 4:52:00 16.2, 16.6 16.44 26, 40, 40 (Avg:40)
18 Colleen Clancy Kadimah Park Hamelech 5 5:11:00 16.4, 14.5 15.43 48, 44, 52 (Avg:48)
10 Bridie Lewis Wakado Sharkhan 6 5:36:15 16.4, 12.6 14.28 36, 41, 52 (Avg:46)
v126 Wendy Riha Castlebar Truffle 6 5:36:15 14.2, 14.3 14.28 28, 40, 43 (Avg:41)
22 Bruce Carter Dasharm Zayesha 8 6:06:00 14.6, 11.8 13.11 32, 44, 42 (Avg:43)
29 Ben Hudson Cap Braveheart 8 6:06:00 12.9, 13.2 13.11 40, 41, 41 (Avg:41)
13 Peter John Blue Dawn Bea 10 6:09:05 13.1, 12.8 13.01 38, 37, 44 (Avg:40)
11 Linda Tanian Castlebar Condor 11 6:23:00 12.6, 12.3 12.53 44, 48, 50 (Avg:49)
9 Kristie Taprell Castlebar Scorpian 11 6:23:00 12.6, 12.3 12.53 34, 39, 44 (Avg:41)
5 Mahteea Leary Shahira Shadazzle 13 6:29:00 12.7, 11.9 12.34 44, 42, 46 (Avg:44)
21 Christopher Clarke Zastava Park Saruman 14 6:45:00 12.3, 11.3 11.85 33, 36, 44 (Avg:40)
36 Rebecca Lees Brindellah Desert Prince 15 7:11:00 11.7, 10.5 11.14 34, 46, 60 (Avg:53)
15 Hailey Knight Maktoum Exceed 16 7:34:00 10.4, 10.6 10.57 35, 42, 44 (Avg:43)
45 Blake Freeman Cedar Ridge Clementine 17 7:35:00 11.1, 9.9 10.55 46, 35, 48 (Avg:41)
25 Victoria Geddes Garonne Park Mission 18 7:43:00 10.6, 10.1 10.37 34, 43, 52 (Avg:47)
26 Anne Lymbery Garonne Park Walker 18 7:43:00 10.6, 10.1 10.37 35, 49, 55 (Avg:52)
65 Frances Derschow S'Shaada Quill 20 7:44:00 12.6, 8.7 10.34 37, 46, 51 (Avg:48)
64 Bree Hollingsworth Sabir 20 7:44:00 12.6, 8.7 10.34 36, 41, 51 (Avg:46)
32 Alamdar Dastani Rowallan Sovereign 22 8:02:00 10.1, 9.7 9.96 42, 33, 42 (Avg:37)
33 Guan Khoo Kailani Tiago 22 8:02:00 10.1, 9.7 9.96 35, 40, 46 (Avg:43)
30 Jenny Berg Oso Laredo Lame L2 0:00:00 19.9, 21.0 - 38, 40, 50 (Avg:45)
16 Jo Davis Kurrajong Amarok Lame L2 0:00:00 10.4, 9.3 - 40, 41, 52 (Avg:46)
61 Jenny Shepheard Annaliisa'ar Metabolics L2 0:00:00 13.1, 13.1 - 42, 36, 68 (Avg:52)
60 Jessica Drain-Shepheard Currowan Clancy Lame L1 0:00:00 16.2 - 37, 39 (Avg:39)
35 Allison Knihinicki Ithilien Elantari Withdrawn L1 0:00:00 - - 42, 46 (Avg:46)
66 Bev Turner Shazzam Lame L1 0:00:00 22.2 - 52, 46 (Avg:46)
Lightweight
51 Fia Hasko-Stewart Wantley Kaliph 1 3:34:00 23.7, 21.2 22.43 44, 40, 43 (Avg:41)
28 Lauren Howson Oso Bandit 2 (BC) 3:41:00 22.8, 20.6 21.72 34, 47, 49 (Avg:48)
57 Nicole Whitehead Riverlee Ashira 3 3:54:05 19.9, 21.0 20.51 53, 46, 52 (Avg:49)
56 Tracy-Lee Feltrin Kelkette Park Lorelle 4 3:54:10 19.9, 21.0 20.50 42, 45, 57 (Avg:51)
52 Vetea Facchini Trigger 5 3:59:00 19.9, 20.1 20.08 34, 40, 42 (Avg:41)
14 Kristie Wright Coolahlee Park Wahsha 6 4:00:00 19.9, 19.9 20.00 33, 40, 48 (Avg:44)
2 April Newman Lasaan 7 4:52:15 19.0, 14.4 16.42 34, 43, 48 (Avg:45)
19 Sue Todd Shakista 8 5:01:00 19.9, 13.2 15.95 38, 49, 55 (Avg:52)
1 Vanessa Richardson Turingal Park Vassili 9 5:11:00 16.3, 14.6 15.43 42, 45, 45 (Avg:45)
12 Allix Jones Castlebar Belair 10 5:36:10 14.2, 14.3 14.28 32, 37, 38 (Avg:37)
7 Alison Pellow Jirrima Smooth Sailor 11 6:09:00 15.2, 11.3 13.01 35, 50, 59 (Avg:54)
100 Ali Godfrey Jafaah Moniet 12 6:11:00 13.1, 12.7 12.94 35, 45, 46 (Avg:45)
6 Robin Gossip Lila 12 6:11:00 13.1, 12.7 12.94 30, 42, 44 (Avg:43)
8 Belinda Wright Kirrong Khalaasy 14 6:29:00 12.7, 11.9 12.34 35, 45, 52 (Avg:48)
v91 Kim Noble Ruby Park Stella 15 7:11:00 11.7, 10.6 11.14 30, 41, 48 (Avg:44)
59 Bianca Whitehead Kelkette Park Silver Earl 16 7:13:00 10.3, 11.8 11.09 41, 47, 53 (Avg:50)
3 Narelle Bush Rowallan Seek 17 7:15:00 11.2, 10.8 11.03 33, 38, 44 (Avg:41)
42 Kali Curtis Blake's Heaven Carousel 17 7:15:00 11.2, 10.8 11.03 32, 38, 41 (Avg:39)
39 Chloe Paton Asiya Contessa 17 7:15:00 11.2, 10.8 11.03 34, 39, 52 (Avg:45)
63 Mary Hollingsworth Die Kinder Mariska 20 7:44:00 12.6, 8.7 10.34 40, 38, 41 (Avg:39)
58 Leeanne Hestelow Burren-Dah Bumble Bee 21 7:45:00 10.0, 10.6 10.32 34, 38, 48 (Avg:43)
34 Courtney Chapman Twinmills Sirius 22 8:02:00 10.1, 9.7 9.96 40, 44, 54 (Avg:49)
46 Courtney Anderson Cedar Ridge Respect 23 8:04:00 10.1, 9.7 9.92 36, 49, 44 (Avg:46)
43 Emma Godber Cedar Ridge Georgia 24 8:04:01 10.1, 9.7 9.92 41, 33, 47 (Avg:40)
50 Louise Stevens Ellen Grove Shantelle Lame L2 0:00:00 23.7, 22.6 - 28, 44, 46 (Avg:45)
31 Rachel Beatson Al-Marah Thunder Bay Withdrawn L1 0:00:00 - - 28, 44 (Avg:44)
Junior
47 Olivia De Gruchy Blake's Heaven Venus 1 (BC) 3:34:00 23.7, 21.2 22.43 37, 44, 50 (Avg:47)
v225 Harrison Berg Mahazin Bronze Azar 2 5:36:00 14.2, 14.3 14.29 34, 42, 47 (Avg:44)
v90 Alison Noble DVS Barnaby 3 7:11:00 11.7, 10.6 11.14 30, 34, 40 (Avg:37)
55 Cybele Coddington Wanstead Travelling Soldier 4 7:45:00 10.0, 10.6 10.32 38, 36, 45 (Avg:40)
23 Shantel Nagle Conderosa Pegasus 4 7:45:00 10.0, 10.6 10.32 40, 40, 41 (Avg:40)